Airfield :
LOGIN :

Register | Disclaimer

   EN    FR    IT 

 










Legend :    VFR   Marginal VFR   IFR   Intensive IFR   Very Intensive IFR
Visi :
Ceiling :
>= 8 km
>= 3000ft
5 to 8 km
1000 to 3000 ft
1500m to 5 km
500 to 1000 ft
800 to 1500m
200 to 500 ft
< 800m
< 200 ft
Symbols :   Thunderstorms  Fog  Heavy snow  Heavy precipitations  Wind > 20 kt
SIGMETs :     Misc.  Thunderstorms  Icing  Turbulence  Mountain Waves  Volcanic Ashes







- Airport Elevation : 132 ft


EGXE - RAF Leeming

CURRENT METAR :
  • 270750Z 14006KT 8000 RA FEW004 SCT007 OVC050 12/12 Q1011 GRN TEMPO 5000 SCT006 YLO1

EXPIRED METARs :
  • 270717Z 14006KT 8000 RA SCT007 OVC050 12/11 Q1011 GRN TEMPO 5000 SCT006 YLO1
  • 270650Z 15007KT 8000 RA FEW010 OVC050 12/11 Q1011 BLU TEMPO 5000 +RA SCT020 WHT
  • 270550Z 13005KT 9999 RA FEW010 OVC050 12/11 Q1011 BLU

TAF TAF EGXE
Valid from the 27 at 09:00 until the 27 at 18:00 UTC


270749Z 2709/2718 12010KT 9999 -RA BKN040
TEMPO 2709/2718 5000 RA BKN020
PROB30
TEMPO 2709/2710 4000 +RA SCT004
PROB30
TEMPO 2710/2718 SCT010
PROB30 2716/2718 BKN006
No reported NOTAMs for that airfield.



MET'MAP, your aeronautical weather chart ! - Copyright ORBIFLY December 2007 - Disclaimer

ORBIFLY MET'MAP TEAM :

Programming & Development : Alexandra Zaïnal
Concept & Development : Baudouin d'Aumeries
Co-Development & Prog : Marc-Olivier Méhu
Technical & hardware support : Manuel Goepfert

Contact : metmap@orbifly.com




SOURCES & CREDITS :

   NOAA